createdAt,value
2023-05-18T00:01:14.740Z,3.90
2023-05-18T00:03:42.390Z,3.83
2023-05-18T00:06:10.086Z,3.83
2023-05-18T00:08:38.633Z,3.62
2023-05-18T00:11:06.776Z,3.75
2023-05-18T00:13:33.790Z,3.85
2023-05-18T00:16:00.558Z,3.71
2023-05-18T00:18:28.058Z,3.93
2023-05-18T00:20:58.770Z,4.06
2023-05-18T00:23:30.738Z,3.98
2023-05-18T00:26:01.724Z,3.93
2023-05-18T00:28:29.474Z,3.71
2023-05-18T00:30:56.677Z,3.90
2023-05-18T00:33:23.299Z,3.95
2023-05-18T00:35:49.967Z,4.00
2023-05-18T00:38:16.590Z,3.75
2023-05-18T00:40:43.953Z,4.02
2023-05-18T00:43:10.692Z,4.50
2023-05-18T00:45:37.309Z,4.16
2023-05-18T00:48:04.526Z,4.26
2023-05-18T00:50:31.795Z,4.27
2023-05-18T00:52:59.266Z,4.07
2023-05-18T00:55:27.995Z,4.08
2023-05-18T00:57:56.888Z,4.15
2023-05-18T01:00:24.055Z,4.20
2023-05-18T01:02:51.289Z,4.10
2023-05-18T01:05:19.904Z,4.41
2023-05-18T01:07:47.055Z,4.35
2023-05-18T01:10:16.458Z,4.18
2023-05-18T01:13:11.129Z,4.32
2023-05-18T01:15:39.962Z,4.14
2023-05-18T01:18:29.049Z,4.26
2023-05-18T01:21:19.492Z,4.15
2023-05-18T01:23:56.550Z,4.61
2023-05-18T01:26:30.008Z,4.52
2023-05-18T01:29:00.071Z,4.35
2023-05-18T01:31:27.785Z,4.30
2023-05-18T01:33:54.583Z,4.36
2023-05-18T01:36:21.532Z,4.26
2023-05-18T01:38:50.553Z,4.25
2023-05-18T01:41:24.453Z,4.02
2023-05-18T01:44:17.649Z,4.55
2023-05-18T01:46:59.505Z,4.82
2023-05-18T01:49:32.067Z,4.80
2023-05-18T01:52:04.355Z,4.62
2023-05-18T01:54:33.570Z,5.20
2023-05-18T01:57:01.378Z,5.12
2023-05-18T01:59:28.763Z,5.07
2023-05-18T02:02:00.478Z,4.86
2023-05-18T02:04:28.149Z,4.69
2023-05-18T02:06:55.414Z,5.23
2023-05-18T02:09:22.701Z,4.88
2023-05-18T02:11:49.500Z,4.90
2023-05-18T02:14:16.269Z,4.33
2023-05-18T02:16:47.545Z,4.59
2023-05-18T02:19:14.912Z,4.36
2023-05-18T02:21:43.470Z,4.47
2023-05-18T02:24:10.380Z,4.79
2023-05-18T02:26:37.699Z,4.42
2023-05-18T02:29:09.455Z,4.71
2023-05-18T02:31:36.833Z,4.44
2023-05-18T02:34:03.951Z,4.44
2023-05-18T02:36:42.707Z,4.70
2023-05-18T02:39:10.471Z,4.87
2023-05-18T02:41:37.288Z,4.93
2023-05-18T02:44:05.036Z,4.78
2023-05-18T02:46:32.558Z,4.82
2023-05-18T02:48:59.845Z,4.66
2023-05-18T02:51:26.689Z,5.22
2023-05-18T02:53:53.240Z,5.19
2023-05-18T02:56:19.829Z,5.12
2023-05-18T02:58:46.449Z,5.24
2023-05-18T03:01:13.270Z,5.29
2023-05-18T03:03:42.408Z,5.05
2023-05-18T03:06:11.002Z,5.03
2023-05-18T03:08:37.590Z,4.52
2023-05-18T03:11:04.469Z,4.73
2023-05-18T03:13:31.043Z,5.07
2023-05-18T03:15:57.597Z,5.11
2023-05-18T03:18:25.338Z,5.00
2023-05-18T03:20:52.647Z,4.84
2023-05-18T03:23:20.192Z,5.05
2023-05-18T03:25:46.781Z,4.69
2023-05-18T03:28:13.340Z,4.98
2023-05-18T03:30:39.993Z,5.10
2023-05-18T03:33:06.657Z,4.95
2023-05-18T03:35:34.079Z,4.84
2023-05-18T03:38:00.842Z,4.72
2023-05-18T03:40:27.489Z,4.89
2023-05-18T03:42:54.103Z,4.85
2023-05-18T03:45:21.018Z,4.85
2023-05-18T03:47:50.027Z,4.94
2023-05-18T03:50:19.164Z,4.61
2023-05-18T03:52:45.963Z,4.76
2023-05-18T03:55:13.082Z,4.95
2023-05-18T03:57:39.836Z,4.76
2023-05-18T04:00:12.197Z,4.89
2023-05-18T04:02:39.647Z,4.51
2023-05-18T04:05:06.961Z,4.88
2023-05-18T04:07:33.594Z,4.84
2023-05-18T04:10:00.236Z,4.82
2023-05-18T04:12:26.776Z,4.87
2023-05-18T04:14:54.184Z,4.72
2023-05-18T04:17:22.315Z,4.87
2023-05-18T04:19:50.290Z,4.77
2023-05-18T04:22:16.942Z,4.70
2023-05-18T04:24:45.708Z,4.71
2023-05-18T04:27:12.338Z,4.66
2023-05-18T04:29:40.089Z,4.91
2023-05-18T04:32:07.904Z,4.83
2023-05-18T04:34:36.198Z,4.78
2023-05-18T04:37:05.728Z,4.70
2023-05-18T04:39:34.512Z,4.61
2023-05-18T04:42:01.994Z,4.61
2023-05-18T04:44:29.249Z,4.94
2023-05-18T04:46:56.343Z,5.00
2023-05-18T04:49:23.405Z,5.08
2023-05-18T04:51:50.833Z,4.72
2023-05-18T04:54:17.424Z,4.86
2023-05-18T04:56:43.995Z,4.96
2023-05-18T04:59:10.763Z,5.10
2023-05-18T05:01:37.501Z,5.02
2023-05-18T05:04:06.239Z,4.51
2023-05-18T05:06:32.813Z,4.88
2023-05-18T05:08:59.406Z,5.17
2023-05-18T05:11:25.986Z,5.00
2023-05-18T05:13:52.592Z,5.02
2023-05-18T05:16:19.353Z,4.92
2023-05-18T05:18:47.298Z,5.00
2023-05-18T05:21:14.211Z,4.70
2023-05-18T05:23:41.295Z,5.38
2023-05-18T05:26:07.910Z,5.10
2023-05-18T05:28:34.481Z,4.95
2023-05-18T05:31:01.182Z,4.71
2023-05-18T05:33:27.821Z,4.99
2023-05-18T05:35:54.520Z,4.71
2023-05-18T05:38:21.093Z,4.72
2023-05-18T05:40:47.714Z,4.65
2023-05-18T05:43:14.322Z,5.05
2023-05-18T05:45:42.809Z,4.81
2023-05-18T05:48:12.629Z,4.68
2023-05-18T05:50:40.328Z,4.90
2023-05-18T05:53:07.093Z,4.69
2023-05-18T05:55:36.517Z,4.75
2023-05-18T05:58:05.272Z,4.59
2023-05-18T06:00:31.869Z,4.45
2023-05-18T06:02:58.991Z,4.54
2023-05-18T06:05:25.884Z,4.66
2023-05-18T06:07:52.708Z,4.38
2023-05-18T06:10:19.276Z,4.35
2023-05-18T06:12:45.879Z,4.20
2023-05-18T06:15:12.468Z,4.10
2023-05-18T06:17:39.289Z,4.21
2023-05-18T06:20:09.283Z,3.87
2023-05-18T06:22:36.500Z,3.92
2023-05-18T06:25:03.279Z,3.60
2023-05-18T06:27:29.889Z,3.74
2023-05-18T06:29:56.476Z,3.72
2023-05-18T06:32:23.187Z,3.67
2023-05-18T06:34:50.698Z,3.64
2023-05-18T06:37:17.745Z,3.72
2023-05-18T06:39:44.370Z,3.41
2023-05-18T06:42:11.241Z,3.45
2023-05-18T06:44:37.791Z,3.62
2023-05-18T06:47:04.522Z,3.79
2023-05-18T06:49:31.112Z,3.56
2023-05-18T06:51:57.730Z,3.13
2023-05-18T06:54:24.318Z,3.37
2023-05-18T06:56:51.094Z,3.54
2023-05-18T06:59:17.738Z,3.60
2023-05-18T07:01:44.421Z,3.33
2023-05-18T07:04:11.158Z,3.49
2023-05-18T07:06:38.313Z,3.28
2023-05-18T07:09:05.338Z,2.99
2023-05-18T07:11:31.969Z,3.14
2023-05-18T07:13:58.621Z,2.96
2023-05-18T07:16:27.874Z,2.91
2023-05-18T07:18:54.884Z,3.15
2023-05-18T07:21:21.470Z,3.04
2023-05-18T07:23:48.004Z,3.09
2023-05-18T07:26:14.559Z,3.36
2023-05-18T07:28:41.134Z,3.32
2023-05-18T07:31:07.814Z,3.21
2023-05-18T07:33:34.834Z,3.00
2023-05-18T07:36:02.907Z,3.06
2023-05-18T07:38:29.441Z,3.03
2023-05-18T07:40:55.977Z,3.05
2023-05-18T07:43:22.569Z,3.31
2023-05-18T07:45:49.163Z,3.31
2023-05-18T07:48:16.232Z,3.49
2023-05-18T07:50:42.834Z,3.55
2023-05-18T07:53:09.447Z,3.13
2023-05-18T07:55:36.020Z,3.40
2023-05-18T07:58:02.620Z,3.41
2023-05-18T08:00:29.339Z,3.52
2023-05-18T08:02:56.461Z,3.71
2023-05-18T08:05:29.865Z,3.51
2023-05-18T08:07:56.699Z,3.41
2023-05-18T08:10:23.406Z,3.32
2023-05-18T08:12:50.048Z,3.21
2023-05-18T08:15:16.670Z,3.17
2023-05-18T08:17:43.234Z,3.48
2023-05-18T08:20:10.522Z,3.13
2023-05-18T08:22:37.201Z,3.27
2023-05-18T08:25:04.160Z,3.35
2023-05-18T08:27:31.298Z,3.24
2023-05-18T08:29:57.844Z,3.33
2023-05-18T08:32:24.545Z,3.69
2023-05-18T08:34:51.786Z,3.42
2023-05-18T08:37:18.614Z,3.75
2023-05-18T08:39:46.241Z,3.30
2023-05-18T08:42:49.216Z,2.98
2023-05-18T08:45:40.178Z,3.42
2023-05-18T08:48:07.856Z,3.46
2023-05-18T08:50:36.032Z,3.11
2023-05-18T08:53:06.183Z,3.24
2023-05-18T08:55:36.763Z,3.39
2023-05-18T08:58:07.576Z,3.31
2023-05-18T09:00:35.436Z,3.43
2023-05-18T09:03:04.308Z,3.13
2023-05-18T09:05:31.852Z,3.34
2023-05-18T09:07:59.426Z,3.42
2023-05-18T09:10:26.382Z,3.03
2023-05-18T09:12:56.080Z,2.84
2023-05-18T09:15:25.283Z,3.23
2023-05-18T09:17:52.397Z,2.92
2023-05-18T09:20:20.088Z,3.08
2023-05-18T09:22:49.623Z,3.17
2023-05-18T09:25:17.690Z,3.22
2023-05-18T09:27:44.471Z,3.17
2023-05-18T09:30:12.043Z,3.19
2023-05-18T09:32:39.024Z,2.89
2023-05-18T09:35:07.529Z,3.16
2023-05-18T09:37:34.813Z,2.93
2023-05-18T09:40:08.560Z,3.17
2023-05-18T09:42:43.287Z,3.12
2023-05-18T09:45:23.627Z,3.22
2023-05-18T09:47:51.692Z,3.42
2023-05-18T09:50:23.214Z,3.62
2023-05-18T09:52:50.635Z,3.47
2023-05-18T09:55:21.261Z,3.63
2023-05-18T09:57:50.178Z,3.47
2023-05-18T10:00:19.424Z,3.56
2023-05-18T10:02:49.167Z,3.45
2023-05-18T10:05:24.318Z,3.31
2023-05-18T10:07:51.709Z,3.51
2023-05-18T10:10:20.788Z,3.27
2023-05-18T10:12:50.652Z,3.53
2023-05-18T10:15:20.778Z,3.76
2023-05-18T10:17:49.111Z,3.62
2023-05-18T10:20:19.909Z,3.47
2023-05-18T10:22:48.974Z,3.76
2023-05-18T10:25:20.364Z,3.65
2023-05-18T10:27:51.039Z,3.75
2023-05-18T10:30:18.285Z,3.36
2023-05-18T10:32:46.224Z,3.29
2023-05-18T10:35:13.726Z,3.48
2023-05-18T10:37:48.665Z,3.73
2023-05-18T10:40:17.918Z,3.86
2023-05-18T10:42:46.557Z,3.72
2023-05-18T10:45:15.469Z,3.74
2023-05-18T10:47:44.064Z,3.71
2023-05-18T10:50:11.253Z,3.71
2023-05-18T10:52:38.639Z,3.55
2023-05-18T10:55:06.857Z,3.62
2023-05-18T10:57:42.292Z,3.88
2023-05-18T11:00:10.472Z,3.55
2023-05-18T11:02:42.595Z,3.81
2023-05-18T11:05:10.931Z,3.69
2023-05-18T11:07:38.940Z,4.03
2023-05-18T11:10:13.053Z,3.86
2023-05-18T11:12:41.160Z,3.77
2023-05-18T11:15:08.573Z,3.48
2023-05-18T11:17:35.308Z,3.54
2023-05-18T11:20:08.559Z,3.72
2023-05-18T11:22:51.438Z,3.79
2023-05-18T11:25:42.842Z,3.84
2023-05-18T11:28:13.385Z,3.37
2023-05-18T11:30:44.612Z,3.40
2023-05-18T11:33:18.948Z,3.47
2023-05-18T11:36:03.453Z,4.11
2023-05-18T11:39:06.767Z,3.85
2023-05-18T11:41:41.635Z,3.61
2023-05-18T11:44:28.497Z,3.48
2023-05-18T11:47:10.970Z,3.61
2023-05-18T11:49:46.473Z,3.63
2023-05-18T11:52:23.782Z,3.80
2023-05-18T11:54:58.756Z,3.53
2023-05-18T11:57:38.107Z,3.66
2023-05-18T12:00:11.814Z,3.66
2023-05-18T12:02:42.510Z,3.83
2023-05-18T12:05:10.207Z,4.00
2023-05-18T12:07:38.820Z,3.84
2023-05-18T12:10:10.652Z,4.09
2023-05-18T12:12:38.173Z,3.86
2023-05-18T12:15:07.076Z,4.13
2023-05-18T12:17:40.791Z,4.13
2023-05-18T12:20:08.618Z,4.25
2023-05-18T12:22:35.583Z,4.07
2023-05-18T12:25:02.184Z,3.72
2023-05-18T12:27:29.205Z,3.99
2023-05-18T12:29:55.858Z,3.93
2023-05-18T12:32:22.434Z,3.93
2023-05-18T12:34:51.260Z,3.64
2023-05-18T12:37:17.968Z,3.80
2023-05-18T12:39:44.580Z,4.03
2023-05-18T12:42:18.293Z,4.07
2023-05-18T12:44:45.557Z,4.23
2023-05-18T12:47:13.947Z,4.27
2023-05-18T12:49:50.197Z,4.03
2023-05-18T12:52:16.889Z,4.00
2023-05-18T12:54:58.359Z,4.05
2023-05-18T12:57:26.459Z,4.46
2023-05-18T12:59:56.720Z,4.34
2023-05-18T13:02:33.455Z,4.29
2023-05-18T13:05:08.733Z,4.64
2023-05-18T13:07:39.674Z,4.60
2023-05-18T13:10:07.835Z,4.60
2023-05-18T13:12:43.135Z,4.60
2023-05-18T13:15:21.924Z,4.73
2023-05-18T13:18:10.332Z,4.17
2023-05-18T13:20:45.442Z,4.25
2023-05-18T13:23:15.320Z,4.39
2023-05-18T13:25:44.333Z,4.42
2023-05-18T13:28:12.939Z,4.59
2023-05-18T13:30:42.033Z,4.56
2023-05-18T13:33:09.341Z,4.54
2023-05-18T13:35:37.046Z,4.04
2023-05-18T13:38:03.980Z,3.82
2023-05-18T13:40:30.802Z,4.08
2023-05-18T13:42:57.368Z,4.04
2023-05-18T13:45:24.012Z,4.09
2023-05-18T13:47:52.103Z,3.92
2023-05-18T13:50:20.345Z,4.46
2023-05-18T13:52:47.625Z,4.48
2023-05-18T13:55:14.421Z,4.42
2023-05-18T13:57:41.238Z,4.22
2023-05-18T14:00:13.402Z,3.97
2023-05-18T14:02:40.957Z,4.31
2023-05-18T14:05:08.805Z,4.19
2023-05-18T14:07:41.792Z,3.99
2023-05-18T14:10:10.440Z,4.34
2023-05-18T14:12:38.079Z,3.96
2023-05-18T14:15:05.609Z,4.20
2023-05-18T14:17:35.523Z,4.43
2023-05-18T14:20:02.202Z,4.19
2023-05-18T14:22:30.477Z,4.08
2023-05-18T14:24:57.114Z,4.51
2023-05-18T14:27:23.876Z,4.50
2023-05-18T14:29:51.121Z,4.40
2023-05-18T14:32:18.301Z,4.13
2023-05-18T14:34:44.905Z,4.33
2023-05-18T14:37:11.532Z,4.32
2023-05-18T14:39:38.974Z,4.44
2023-05-18T14:42:06.192Z,4.44
2023-05-18T14:44:32.945Z,4.18
2023-05-18T14:46:59.560Z,4.09
2023-05-18T14:49:26.128Z,3.80
2023-05-18T14:51:52.749Z,4.41
2023-05-18T14:54:20.311Z,4.49
2023-05-18T14:56:47.013Z,4.44
2023-05-18T14:59:14.175Z,4.14
2023-05-18T15:01:40.815Z,4.33
2023-05-18T15:04:07.690Z,4.06
2023-05-18T15:06:34.338Z,4.02
2023-05-18T15:09:01.162Z,3.99
2023-05-18T15:11:27.833Z,4.16
2023-05-18T15:13:54.428Z,4.24
2023-05-18T15:16:21.192Z,4.60
2023-05-18T15:18:47.809Z,4.70
2023-05-18T15:21:14.535Z,4.93
2023-05-18T15:23:41.173Z,4.33
2023-05-18T15:26:09.340Z,4.48
2023-05-18T15:28:36.203Z,4.13
2023-05-18T15:31:02.864Z,3.89
2023-05-18T15:33:29.820Z,4.46
2023-05-18T15:35:56.591Z,4.90
2023-05-18T15:38:23.162Z,4.85
2023-05-18T15:40:50.435Z,4.41
2023-05-18T15:43:17.358Z,4.31
2023-05-18T15:45:44.069Z,4.86
2023-05-18T15:48:11.193Z,4.48
2023-05-18T15:50:37.857Z,4.98
2023-05-18T15:53:04.513Z,4.99
2023-05-18T15:55:31.058Z,4.71
2023-05-18T15:57:57.647Z,4.09
2023-05-18T16:00:26.047Z,4.15
2023-05-18T16:02:52.767Z,3.92
2023-05-18T16:05:19.402Z,4.05
2023-05-18T16:07:46.256Z,4.23
2023-05-18T16:10:14.496Z,4.24
2023-05-18T16:12:41.411Z,4.46
2023-05-18T16:15:08.337Z,4.45
2023-05-18T16:17:34.954Z,4.55
2023-05-18T16:20:03.716Z,4.61
2023-05-18T16:22:30.870Z,4.54
2023-05-18T16:24:58.819Z,4.47
2023-05-18T16:27:25.682Z,4.80
2023-05-18T16:29:52.356Z,4.53
2023-05-18T16:32:18.991Z,4.78
2023-05-18T16:34:45.594Z,6.55
2023-05-18T16:37:12.234Z,6.53
2023-05-18T16:39:39.205Z,4.75
2023-05-18T16:42:07.567Z,4.82
2023-05-18T16:44:34.676Z,4.67
2023-05-18T16:47:01.522Z,4.92
2023-05-18T16:49:28.120Z,4.44
2023-05-18T16:51:54.751Z,4.21
2023-05-18T16:54:21.421Z,4.06
2023-05-18T16:56:48.056Z,4.11
2023-05-18T16:59:15.349Z,4.49
2023-05-18T17:01:41.978Z,4.47
2023-05-18T17:04:08.818Z,5.44
2023-05-18T17:06:36.172Z,8.69
2023-05-18T17:09:05.543Z,10.92
2023-05-18T17:11:32.998Z,8.89
2023-05-18T17:14:01.350Z,7.07
2023-05-18T17:16:28.416Z,4.65
2023-05-18T17:18:56.047Z,4.64
2023-05-18T17:21:23.833Z,4.60
2023-05-18T17:23:51.575Z,4.71
2023-05-18T17:26:18.163Z,4.52
2023-05-18T17:28:44.927Z,4.75
2023-05-18T17:31:11.551Z,4.96
2023-05-18T17:33:38.188Z,4.23
2023-05-18T17:36:05.064Z,4.35
2023-05-18T17:38:31.972Z,4.95
2023-05-18T17:40:58.528Z,4.65
2023-05-18T17:43:25.106Z,4.33
2023-05-18T17:45:52.071Z,4.57
2023-05-18T17:48:18.789Z,4.42
2023-05-18T17:50:45.488Z,4.44
2023-05-18T17:53:12.343Z,4.46
2023-05-18T17:55:39.442Z,4.51
2023-05-18T17:58:06.338Z,4.14
2023-05-18T18:00:33.357Z,4.34
2023-05-18T18:03:00.382Z,4.21
2023-05-18T18:05:27.085Z,4.41
2023-05-18T18:07:54.182Z,4.24
2023-05-18T18:10:21.083Z,4.38
2023-05-18T18:12:47.687Z,4.40
2023-05-18T18:15:14.371Z,4.12
2023-05-18T18:17:41.087Z,4.13
2023-05-18T18:20:09.701Z,4.41
2023-05-18T18:22:38.323Z,4.56
2023-05-18T18:25:05.239Z,3.96
2023-05-18T18:27:32.358Z,4.38
2023-05-18T18:29:58.907Z,3.98
2023-05-18T18:32:25.699Z,4.14
2023-05-18T18:34:52.413Z,4.18
2023-05-18T18:37:19.130Z,4.50
2023-05-18T18:39:45.814Z,4.64
2023-05-18T18:42:12.620Z,4.43
2023-05-18T18:44:39.258Z,4.52
2023-05-18T18:47:05.949Z,4.11
2023-05-18T18:49:32.606Z,4.48
2023-05-18T18:51:59.396Z,4.44
2023-05-18T18:54:27.014Z,4.39
2023-05-18T18:56:54.024Z,4.33
2023-05-18T18:59:20.559Z,4.90
2023-05-18T19:01:47.282Z,4.41
2023-05-18T19:04:13.918Z,4.65
2023-05-18T19:06:42.651Z,4.32
2023-05-18T19:09:09.306Z,4.73
2023-05-18T19:11:36.664Z,4.68
2023-05-18T19:14:04.473Z,4.60
2023-05-18T19:16:32.835Z,4.54
2023-05-18T19:18:59.660Z,4.41
2023-05-18T19:21:26.290Z,3.97
2023-05-18T19:23:52.857Z,4.32
2023-05-18T19:26:19.400Z,4.32
2023-05-18T19:28:46.220Z,4.65
2023-05-18T19:31:12.800Z,4.35
2023-05-18T19:33:39.491Z,4.41
2023-05-18T19:36:06.200Z,4.63
2023-05-18T19:38:32.801Z,4.57
2023-05-18T19:40:59.345Z,4.52
2023-05-18T19:43:26.001Z,4.75
2023-05-18T19:45:52.782Z,4.69
2023-05-18T19:48:19.643Z,4.32
2023-05-18T19:50:46.399Z,4.40
2023-05-18T19:53:13.006Z,5.04
2023-05-18T19:55:39.789Z,4.90
2023-05-18T19:58:06.492Z,4.57
2023-05-18T20:00:33.636Z,4.87
2023-05-18T20:03:03.121Z,5.55
2023-05-18T20:05:29.761Z,5.31
2023-05-18T20:07:58.012Z,5.43
2023-05-18T20:10:25.900Z,6.13
2023-05-18T20:12:52.503Z,6.00
2023-05-18T20:15:19.141Z,5.90
2023-05-18T20:17:46.027Z,6.05
2023-05-18T20:20:12.669Z,5.59
2023-05-18T20:22:39.629Z,5.48
2023-05-18T20:25:06.758Z,5.46
2023-05-18T20:27:33.355Z,5.43
2023-05-18T20:29:59.989Z,5.39
2023-05-18T20:32:27.190Z,5.61
2023-05-18T20:34:53.833Z,5.80
2023-05-18T20:37:20.565Z,5.76
2023-05-18T20:39:50.534Z,5.92
2023-05-18T20:42:23.517Z,5.37
2023-05-18T20:44:52.517Z,5.11
2023-05-18T20:47:20.231Z,5.41
2023-05-18T20:49:48.996Z,5.30
2023-05-18T20:52:15.811Z,5.75
2023-05-18T20:54:43.731Z,5.75
2023-05-18T20:57:10.490Z,5.62
2023-05-18T20:59:37.116Z,6.19
2023-05-18T21:02:04.523Z,5.95
2023-05-18T21:04:31.371Z,7.09
2023-05-18T21:06:57.951Z,6.70
2023-05-18T21:09:24.555Z,6.20
2023-05-18T21:11:51.329Z,5.24
2023-05-18T21:14:17.953Z,5.64
2023-05-18T21:16:44.966Z,5.93
2023-05-18T21:19:12.100Z,5.57
2023-05-18T21:21:38.728Z,5.00
2023-05-18T21:24:06.689Z,5.34
2023-05-18T21:26:35.559Z,4.91
2023-05-18T21:29:02.238Z,5.70
2023-05-18T21:31:29.047Z,5.46
2023-05-18T21:33:55.649Z,5.47
2023-05-18T21:36:33.799Z,5.76
2023-05-18T21:39:01.700Z,6.09
2023-05-18T21:41:28.327Z,6.29
2023-05-18T21:43:54.885Z,6.10
2023-05-18T21:46:21.592Z,6.69
2023-05-18T21:48:48.216Z,6.28
2023-05-18T21:51:15.353Z,5.39
2023-05-18T21:53:41.992Z,5.11
2023-05-18T21:56:08.912Z,5.30
2023-05-18T21:58:35.497Z,5.19
2023-05-18T22:01:02.169Z,5.03
2023-05-18T22:03:28.784Z,5.38
2023-05-18T22:05:55.395Z,5.28
2023-05-18T22:08:22.261Z,5.24
2023-05-18T22:10:48.880Z,5.40
2023-05-18T22:13:16.113Z,5.32
2023-05-18T22:15:42.854Z,5.55
2023-05-18T22:18:09.989Z,5.38
2023-05-18T22:20:36.618Z,5.25
2023-05-18T22:23:03.531Z,5.32
2023-05-18T22:25:30.237Z,5.60
2023-05-18T22:27:56.910Z,6.02
2023-05-18T22:30:28.388Z,6.02
2023-05-18T22:32:55.033Z,6.19
2023-05-18T22:35:21.692Z,6.97
2023-05-18T22:37:48.237Z,6.48
2023-05-18T22:40:14.846Z,7.38
2023-05-18T22:42:41.476Z,6.98
2023-05-18T22:45:09.778Z,6.35
2023-05-18T22:47:39.005Z,6.05
2023-05-18T22:50:09.167Z,5.71
2023-05-18T22:52:36.682Z,5.43
2023-05-18T22:55:03.786Z,5.54
2023-05-18T22:57:30.471Z,5.23
2023-05-18T22:59:57.072Z,5.45
2023-05-18T23:02:23.651Z,5.69
2023-05-18T23:04:50.221Z,5.52
2023-05-18T23:07:17.266Z,5.47
2023-05-18T23:09:43.845Z,5.28
2023-05-18T23:12:11.142Z,5.43
2023-05-18T23:14:38.000Z,5.45
2023-05-18T23:17:04.696Z,5.60
2023-05-18T23:19:31.624Z,5.88
2023-05-18T23:21:58.220Z,6.01
2023-05-18T23:24:24.813Z,5.68
2023-05-18T23:26:51.424Z,5.49
2023-05-18T23:29:18.108Z,5.20
2023-05-18T23:31:44.810Z,5.58
2023-05-18T23:34:11.683Z,5.84
2023-05-18T23:36:39.684Z,5.31
2023-05-18T23:39:07.035Z,5.71
2023-05-18T23:41:35.726Z,5.77
2023-05-18T23:44:03.735Z,5.64
2023-05-18T23:46:31.697Z,5.40
2023-05-18T23:48:59.552Z,5.14
2023-05-18T23:51:30.827Z,5.56
2023-05-18T23:53:58.893Z,5.47
2023-05-18T23:56:25.757Z,5.70
2023-05-18T23:58:52.687Z,5.64
